createdAt,value
2018-07-12T00:02:13.262Z,20.20
2018-07-12T00:04:40.977Z,20.20
2018-07-12T00:07:08.611Z,20.20
2018-07-12T00:09:36.169Z,20.20
2018-07-12T00:12:03.704Z,20.20
2018-07-12T00:14:32.140Z,20.20
2018-07-12T00:16:59.769Z,20.30
2018-07-12T00:19:27.316Z,20.30
2018-07-12T00:21:55.658Z,20.30
2018-07-12T00:24:23.225Z,20.30
2018-07-12T00:26:50.881Z,20.30
2018-07-12T00:29:18.744Z,20.30
2018-07-12T00:31:46.751Z,20.30
2018-07-12T00:34:14.563Z,20.40
2018-07-12T00:36:42.329Z,20.30
2018-07-12T00:39:11.757Z,20.40
2018-07-12T00:44:07.758Z,20.40
2018-07-12T00:46:35.699Z,20.40
2018-07-12T00:49:03.350Z,20.40
2018-07-12T00:51:31.497Z,20.40
2018-07-12T00:53:59.301Z,20.40
2018-07-12T00:56:26.883Z,20.40
2018-07-12T00:58:54.753Z,20.40
2018-07-12T01:01:22.553Z,20.40
2018-07-12T01:03:50.267Z,20.40
2018-07-12T01:06:19.571Z,20.40
2018-07-12T01:08:47.346Z,20.40
2018-07-12T01:11:16.638Z,20.40
2018-07-12T01:13:45.443Z,20.40
2018-07-12T01:16:13.409Z,20.40
2018-07-12T01:18:41.208Z,20.40
2018-07-12T01:21:08.986Z,20.40
2018-07-12T01:23:36.612Z,20.40
2018-07-12T01:26:04.611Z,20.40
2018-07-12T01:28:32.173Z,20.40
2018-07-12T01:31:00.267Z,20.40
2018-07-12T01:33:28.175Z,20.40
2018-07-12T01:35:56.286Z,20.30
2018-07-12T01:38:24.900Z,20.30
2018-07-12T01:40:52.594Z,20.30
2018-07-12T01:43:20.224Z,20.30
2018-07-12T01:45:47.945Z,20.30
2018-07-12T01:48:15.610Z,20.20
2018-07-12T01:50:43.410Z,20.20
2018-07-12T01:53:11.343Z,20.20
2018-07-12T01:55:40.824Z,20.20
2018-07-12T01:58:09.054Z,20.20
2018-07-12T02:00:37.647Z,20.20
2018-07-12T02:03:05.247Z,20.20
2018-07-12T02:05:32.904Z,20.20
2018-07-12T02:08:00.607Z,20.20
2018-07-12T02:10:28.251Z,20.10
2018-07-12T02:12:55.901Z,20.10
2018-07-12T02:15:24.225Z,20.10
2018-07-12T02:17:52.717Z,20.10
2018-07-12T02:20:20.851Z,20.10
2018-07-12T02:22:48.646Z,20.10
2018-07-12T02:25:16.627Z,20.10
2018-07-12T02:27:45.281Z,20.10
2018-07-12T02:30:13.412Z,20.10
2018-07-12T02:32:41.384Z,20.10
2018-07-12T02:35:09.338Z,20.10
2018-07-12T02:37:37.191Z,20.10
2018-07-12T02:40:05.007Z,20.10
2018-07-12T02:42:32.627Z,20.10
2018-07-12T02:45:00.472Z,20.10
2018-07-12T02:47:28.217Z,20.10
2018-07-12T02:49:56.336Z,20.10
2018-07-12T02:52:24.360Z,20.10
2018-07-12T02:54:53.963Z,20.10
2018-07-12T02:57:21.627Z,20.10
2018-07-12T02:59:49.303Z,20.10
2018-07-12T03:02:17.045Z,20.00
2018-07-12T03:04:44.680Z,20.00
2018-07-12T03:07:13.422Z,20.00
2018-07-12T03:09:41.038Z,20.00
2018-07-12T03:12:08.643Z,20.00
2018-07-12T03:14:36.256Z,20.00
2018-07-12T03:17:03.912Z,20.00
2018-07-12T03:19:31.705Z,20.00
2018-07-12T03:22:00.626Z,19.90
2018-07-12T03:24:28.476Z,19.90
2018-07-12T03:26:56.380Z,19.90
2018-07-12T03:29:23.997Z,19.90
2018-07-12T03:31:52.085Z,19.90
2018-07-12T03:34:20.229Z,19.80
2018-07-12T03:36:47.977Z,19.80
2018-07-12T03:39:16.386Z,19.90
2018-07-12T03:41:44.869Z,19.90
2018-07-12T03:44:13.037Z,19.80
2018-07-12T03:46:41.077Z,19.80
2018-07-12T03:49:09.372Z,19.80
2018-07-12T03:51:38.805Z,19.80
2018-07-12T03:54:06.489Z,19.80
2018-07-12T03:56:34.397Z,19.80
2018-07-12T03:59:02.416Z,19.70
2018-07-12T04:01:30.408Z,19.70
2018-07-12T04:06:26.392Z,19.80
2018-07-12T04:08:54.592Z,19.70
2018-07-12T04:11:23.333Z,19.80
2018-07-12T04:13:51.924Z,19.70
2018-07-12T04:16:19.655Z,19.80
2018-07-12T04:18:47.710Z,19.80
2018-07-12T04:21:15.393Z,19.80
2018-07-12T04:23:43.973Z,19.80
2018-07-12T04:26:11.615Z,19.80
2018-07-12T04:28:39.490Z,19.80
2018-07-12T04:31:07.174Z,19.80
2018-07-12T04:33:35.467Z,19.90
2018-07-12T04:36:03.728Z,19.90
2018-07-12T04:38:32.644Z,19.90
2018-07-12T04:41:02.388Z,19.90
2018-07-12T04:43:30.304Z,19.90
2018-07-12T04:45:58.808Z,19.90
2018-07-12T04:48:26.669Z,19.90
2018-07-12T04:50:54.777Z,19.90
2018-07-12T04:53:22.833Z,20.00
2018-07-12T04:55:50.511Z,20.00
2018-07-12T04:58:18.229Z,20.00
2018-07-12T05:00:45.793Z,20.00
2018-07-12T05:03:13.577Z,19.90
2018-07-12T05:05:41.149Z,19.90
2018-07-12T05:08:09.949Z,19.90
2018-07-12T05:10:37.610Z,19.90
2018-07-12T05:13:05.347Z,19.90
2018-07-12T05:15:33.036Z,19.90
2018-07-12T05:18:00.657Z,19.80
2018-07-12T05:20:28.357Z,19.80
2018-07-12T05:22:56.334Z,19.80
2018-07-12T05:25:24.853Z,19.80
2018-07-12T05:27:52.753Z,19.80
2018-07-12T05:30:20.349Z,19.80
2018-07-12T05:32:48.335Z,19.90
2018-07-12T05:35:16.926Z,19.80
2018-07-12T05:37:47.621Z,19.80
2018-07-12T05:40:17.618Z,19.80
2018-07-12T05:42:47.654Z,19.90
2018-07-12T05:45:18.068Z,19.90
2018-07-12T05:47:48.255Z,19.90
2018-07-12T05:52:47.791Z,19.90
2018-07-12T05:55:17.680Z,20.00
2018-07-12T05:57:48.270Z,20.00
2018-07-12T06:00:19.762Z,20.00
2018-07-12T06:02:51.380Z,20.10
2018-07-12T06:05:23.483Z,20.10
2018-07-12T06:07:54.130Z,20.20
2018-07-12T06:10:26.565Z,20.30
2018-07-12T06:12:56.421Z,20.40
2018-07-12T06:18:04.689Z,20.70
2018-07-12T06:20:34.573Z,20.80
2018-07-12T06:23:05.235Z,20.90
2018-07-12T06:25:37.834Z,21.10
2018-07-12T06:28:07.845Z,21.10
2018-07-12T06:30:37.512Z,21.30
2018-07-12T06:33:07.207Z,21.30
2018-07-12T06:35:37.748Z,21.40
2018-07-12T06:38:07.019Z,21.50
2018-07-12T06:40:36.747Z,21.60
2018-07-12T06:43:06.540Z,21.60
2018-07-12T06:45:36.375Z,21.70
2018-07-12T06:48:06.081Z,21.80
2018-07-12T06:50:35.307Z,21.90
2018-07-12T06:53:05.273Z,22.00
2018-07-12T06:55:34.996Z,22.10
2018-07-12T07:00:41.367Z,22.30
2018-07-12T07:03:11.712Z,22.50
2018-07-12T07:05:41.112Z,22.70
2018-07-12T07:08:11.166Z,23.00
2018-07-12T07:10:41.409Z,23.30
2018-07-12T07:13:11.249Z,23.50
2018-07-12T07:15:40.671Z,23.70
2018-07-12T07:18:10.815Z,23.90
2018-07-12T07:20:40.228Z,24.10
2018-07-12T07:23:10.165Z,24.20
2018-07-12T07:25:39.711Z,24.40
2018-07-12T07:28:10.894Z,24.70
2018-07-12T07:30:40.153Z,24.90
2018-07-12T07:33:10.568Z,25.10
2018-07-12T07:35:40.577Z,25.40
2018-07-12T07:38:10.542Z,25.40
2018-07-12T07:40:39.725Z,25.50
2018-07-12T07:43:09.648Z,25.60
2018-07-12T07:45:39.297Z,25.60
2018-07-12T07:48:11.312Z,25.70
2018-07-12T07:50:42.068Z,25.80
2018-07-12T07:53:11.736Z,25.90
2018-07-12T07:55:40.756Z,25.90
2018-07-12T07:58:09.962Z,26.00
2018-07-12T08:00:39.045Z,26.10
2018-07-12T08:03:08.856Z,26.20
2018-07-12T08:05:38.243Z,26.30
2018-07-12T08:08:07.674Z,26.30
2018-07-12T08:10:36.959Z,26.30
2018-07-12T08:13:06.050Z,26.30
2018-07-12T08:15:35.359Z,26.20
2018-07-12T08:18:04.472Z,26.20
2018-07-12T08:20:33.574Z,26.30
2018-07-12T08:23:02.613Z,26.40
2018-07-12T08:25:31.773Z,26.60
2018-07-12T08:28:19.517Z,26.90
2018-07-12T08:30:48.603Z,27.10
2018-07-12T08:35:46.417Z,27.50
2018-07-12T08:38:16.060Z,27.60
2018-07-12T08:40:45.432Z,27.70
2018-07-12T08:43:15.179Z,27.70
2018-07-12T08:45:45.386Z,27.60
2018-07-12T08:48:15.701Z,27.60
2018-07-12T08:50:45.118Z,27.50
2018-07-12T08:53:15.781Z,27.40
2018-07-12T08:55:47.739Z,27.50
2018-07-12T08:58:17.854Z,27.50
2018-07-12T09:00:48.161Z,27.60
2018-07-12T09:03:18.402Z,27.80
2018-07-12T09:05:48.382Z,27.90
2018-07-12T09:08:18.188Z,28.10
2018-07-12T09:10:48.192Z,28.20
2018-07-12T09:15:47.576Z,28.30
2018-07-12T09:18:17.476Z,28.40
2018-07-12T09:20:47.924Z,28.40
2018-07-12T09:23:17.719Z,28.50
2018-07-12T09:25:47.244Z,28.60
2018-07-12T09:28:16.905Z,28.80
2018-07-12T09:30:46.876Z,28.80
2018-07-12T09:35:45.862Z,28.60
2018-07-12T09:38:35.068Z,28.50
2018-07-12T09:41:06.800Z,28.50
2018-07-12T09:43:36.643Z,28.70
2018-07-12T09:46:08.445Z,28.90
2018-07-12T09:48:40.779Z,29.00
2018-07-12T09:51:11.800Z,28.90
2018-07-12T09:53:43.026Z,28.70
2018-07-12T09:56:13.216Z,28.50
2018-07-12T09:58:42.978Z,28.40
2018-07-12T10:01:18.092Z,28.40
2018-07-12T10:03:50.313Z,28.40
2018-07-12T10:06:26.279Z,28.40
2018-07-12T10:08:56.174Z,28.30
2018-07-12T10:11:32.268Z,28.30
2018-07-12T10:14:07.359Z,28.30
2018-07-12T10:16:42.167Z,28.40
2018-07-12T10:19:11.976Z,28.60
2018-07-12T10:21:42.122Z,28.70
2018-07-12T10:24:11.913Z,28.90
2018-07-12T10:26:42.795Z,29.10
2018-07-12T10:31:43.164Z,29.30
2018-07-12T10:34:13.009Z,29.30
2018-07-12T10:36:43.369Z,29.40
2018-07-12T10:39:14.239Z,29.50
2018-07-12T10:41:44.142Z,29.60
2018-07-12T10:44:14.355Z,29.60
2018-07-12T10:46:44.627Z,29.60
2018-07-12T10:49:15.202Z,29.50
2018-07-12T10:51:45.254Z,29.40
2018-07-12T10:54:17.036Z,29.40
2018-07-12T10:56:47.641Z,29.40
2018-07-12T10:59:17.405Z,29.40
2018-07-12T11:01:47.665Z,29.40
2018-07-12T11:04:17.440Z,29.50
2018-07-12T11:06:46.965Z,29.60
2018-07-12T11:09:16.619Z,29.70
2018-07-12T11:11:46.953Z,29.80
2018-07-12T11:14:18.430Z,29.90
2018-07-12T11:16:48.427Z,30.00
2018-07-12T11:19:20.379Z,30.20
2018-07-12T11:21:50.976Z,30.20
2018-07-12T11:24:22.350Z,30.30
2018-07-12T11:26:54.234Z,30.20
2018-07-12T11:29:56.221Z,30.10
2018-07-12T11:32:25.979Z,30.00
2018-07-12T11:34:56.761Z,29.80
2018-07-12T11:37:27.657Z,29.80
2018-07-12T11:39:59.659Z,29.70
2018-07-12T11:42:32.113Z,29.80
2018-07-12T11:45:02.415Z,29.90
2018-07-12T11:47:31.889Z,30.10
2018-07-12T11:50:02.761Z,30.10
2018-07-12T11:52:34.973Z,30.20
2018-07-12T11:55:05.259Z,30.30
2018-07-12T11:57:37.495Z,30.30
2018-07-12T12:00:09.218Z,30.30
2018-07-12T12:02:40.469Z,30.30
2018-07-12T12:05:12.206Z,30.20
2018-07-12T12:07:42.690Z,30.20
2018-07-12T12:10:15.185Z,30.10
2018-07-12T12:12:46.085Z,30.00
2018-07-12T12:15:17.781Z,29.90
2018-07-12T12:17:48.081Z,29.70
2018-07-12T12:20:18.642Z,29.50
2018-07-12T12:22:48.336Z,29.40
2018-07-12T12:25:21.840Z,29.30
2018-07-12T12:27:54.780Z,29.30
2018-07-12T12:30:24.910Z,29.30
2018-07-12T12:32:55.773Z,29.40
2018-07-12T12:35:33.356Z,29.40
2018-07-12T12:38:03.512Z,29.50
2018-07-12T12:40:35.089Z,29.50
2018-07-12T12:43:05.162Z,29.50
2018-07-12T12:45:35.644Z,29.60
2018-07-12T12:48:07.053Z,29.70
2018-07-12T12:50:37.959Z,29.80
2018-07-12T12:53:09.422Z,29.80
2018-07-12T12:55:41.398Z,29.90
2018-07-12T12:58:11.592Z,29.70
2018-07-12T13:00:41.618Z,29.60
2018-07-12T13:03:14.283Z,29.40
2018-07-12T13:05:44.753Z,29.30
2018-07-12T13:08:16.481Z,29.20
2018-07-12T13:10:46.881Z,29.20
2018-07-12T13:13:17.009Z,29.20
2018-07-12T13:15:46.935Z,29.20
2018-07-12T13:18:18.781Z,29.20
2018-07-12T13:20:49.296Z,29.10
2018-07-12T13:23:22.241Z,29.00
2018-07-12T13:25:52.696Z,28.90
2018-07-12T13:28:24.798Z,29.00
2018-07-12T13:30:55.609Z,29.10
2018-07-12T13:33:34.551Z,29.20
2018-07-12T13:36:05.072Z,29.40
2018-07-12T13:38:35.721Z,29.70
2018-07-12T13:41:08.333Z,29.80
2018-07-12T13:43:40.443Z,29.90
2018-07-12T13:46:11.180Z,30.00
2018-07-12T13:48:42.010Z,30.00
2018-07-12T13:51:14.006Z,30.10
2018-07-12T13:53:44.407Z,30.10
2018-07-12T13:56:15.339Z,30.10
2018-07-12T13:58:45.680Z,30.20
2018-07-12T14:01:15.295Z,30.30
2018-07-12T14:03:45.382Z,30.30
2018-07-12T14:06:17.113Z,30.40
2018-07-12T14:08:46.607Z,30.30
2018-07-12T14:11:17.328Z,30.30
2018-07-12T14:13:47.606Z,30.30
2018-07-12T14:16:17.012Z,30.20
2018-07-12T14:18:46.300Z,30.10
2018-07-12T14:21:15.737Z,30.00
2018-07-12T14:23:46.047Z,29.90
2018-07-12T14:26:17.818Z,29.90
2018-07-12T14:28:50.084Z,29.80
2018-07-12T14:31:20.194Z,29.80
2018-07-12T14:33:50.547Z,29.80
2018-07-12T14:36:22.067Z,29.70
2018-07-12T14:38:55.563Z,29.70
2018-07-12T14:41:27.322Z,29.70
2018-07-12T14:44:04.576Z,29.70
2018-07-12T14:46:38.116Z,29.60
2018-07-12T14:49:12.008Z,29.60
2018-07-12T14:51:43.533Z,29.60
2018-07-12T14:54:14.632Z,29.50
2018-07-12T14:56:43.800Z,29.50
2018-07-12T14:59:13.642Z,29.50
2018-07-12T15:01:43.705Z,29.50
2018-07-12T15:04:12.883Z,29.40
2018-07-12T15:06:42.707Z,29.40
2018-07-12T15:11:42.186Z,29.50
2018-07-12T15:14:11.834Z,29.50
2018-07-12T15:16:41.325Z,29.40
2018-07-12T15:19:10.418Z,29.40
2018-07-12T15:21:39.903Z,29.40
2018-07-12T15:24:09.367Z,29.30
2018-07-12T15:26:39.997Z,29.20
2018-07-12T15:29:10.306Z,29.10
2018-07-12T15:31:41.746Z,29.00
2018-07-12T15:34:11.981Z,28.90
2018-07-12T15:36:42.404Z,28.80
2018-07-12T15:39:16.035Z,28.80
2018-07-12T15:41:47.186Z,28.80
2018-07-12T15:44:17.490Z,28.80
2018-07-12T15:46:47.651Z,28.80
2018-07-12T15:49:19.284Z,28.90
2018-07-12T15:51:49.551Z,28.90
2018-07-12T15:54:19.370Z,28.90
2018-07-12T15:56:49.183Z,29.00
2018-07-12T15:59:18.733Z,29.00
2018-07-12T16:01:48.856Z,29.00
2018-07-12T16:04:18.554Z,29.10
2018-07-12T16:06:48.360Z,29.00
2018-07-12T16:09:19.789Z,29.00
2018-07-12T16:11:49.887Z,29.00
2018-07-12T16:14:19.477Z,28.90
2018-07-12T16:16:52.981Z,28.90
2018-07-12T16:21:53.684Z,28.80
2018-07-12T16:24:23.852Z,28.80
2018-07-12T16:26:53.348Z,28.80
2018-07-12T16:29:25.569Z,28.80
2018-07-12T16:31:56.081Z,28.80
2018-07-12T16:34:26.101Z,28.80
2018-07-12T16:36:55.960Z,28.80
2018-07-12T16:39:25.641Z,28.70
2018-07-12T16:41:55.564Z,28.70
2018-07-12T16:44:26.048Z,28.70
2018-07-12T16:46:56.166Z,28.70
2018-07-12T16:49:25.782Z,28.60
2018-07-12T16:51:58.167Z,28.60
2018-07-12T16:54:29.539Z,28.60
2018-07-12T16:56:59.749Z,28.60
2018-07-12T16:59:29.826Z,28.60
2018-07-12T17:01:59.731Z,28.60
2018-07-12T17:04:30.732Z,28.70
2018-07-12T17:07:00.691Z,28.70
2018-07-12T17:09:30.484Z,28.70
2018-07-12T17:11:59.963Z,28.70
2018-07-12T17:14:30.384Z,28.70
2018-07-12T17:17:00.844Z,28.70
2018-07-12T17:19:31.509Z,28.60
2018-07-12T17:22:02.327Z,28.60
2018-07-12T17:24:31.833Z,28.40
2018-07-12T17:27:01.225Z,28.40
2018-07-12T17:29:30.821Z,28.30
2018-07-12T17:32:01.050Z,28.20
2018-07-12T17:34:31.264Z,28.00
2018-07-12T17:37:01.009Z,27.90
2018-07-12T17:39:30.972Z,27.80
2018-07-12T17:42:02.701Z,27.70
2018-07-12T17:44:34.706Z,27.60
2018-07-12T17:47:05.677Z,27.50
2018-07-12T17:49:37.144Z,27.40
2018-07-12T17:52:11.029Z,27.30
2018-07-12T17:54:41.760Z,27.30
2018-07-12T17:57:11.336Z,27.20
2018-07-12T17:59:41.293Z,27.20
2018-07-12T18:02:11.749Z,27.10
2018-07-12T18:04:42.131Z,27.10
2018-07-12T18:07:12.656Z,27.00
2018-07-12T18:09:41.691Z,27.00
2018-07-12T18:12:12.016Z,27.00
2018-07-12T18:14:42.724Z,26.90
2018-07-12T18:17:15.896Z,26.90
2018-07-12T18:19:50.787Z,26.90
2018-07-12T18:22:20.616Z,26.90
2018-07-12T18:24:51.395Z,26.90
2018-07-12T18:27:22.124Z,26.80
2018-07-12T18:29:51.992Z,26.80
2018-07-12T18:32:22.263Z,26.80
2018-07-12T18:34:53.413Z,26.80
2018-07-12T18:37:25.738Z,26.80
2018-07-12T18:39:55.934Z,26.70
2018-07-12T18:42:25.833Z,26.70
2018-07-12T18:44:55.412Z,26.60
2018-07-12T18:47:25.459Z,26.60
2018-07-12T18:49:57.310Z,26.60
2018-07-12T18:52:26.877Z,26.50
2018-07-12T18:54:58.894Z,26.40
2018-07-12T18:57:29.353Z,26.40
2018-07-12T18:59:58.963Z,26.30
2018-07-12T19:02:28.885Z,26.20
2018-07-12T19:04:58.972Z,26.20
2018-07-12T19:07:28.084Z,26.10
2018-07-12T19:09:58.505Z,26.00
2018-07-12T19:12:29.122Z,26.00
2018-07-12T19:14:58.526Z,25.90
2018-07-12T19:19:58.417Z,25.70
2018-07-12T19:22:28.525Z,25.70
2018-07-12T19:24:58.415Z,25.60
2018-07-12T19:27:28.390Z,25.50
2018-07-12T19:30:00.636Z,25.50
2018-07-12T19:32:30.581Z,25.40
2018-07-12T19:35:01.682Z,25.30
2018-07-12T19:37:31.566Z,25.30
2018-07-12T19:40:02.528Z,25.20
2018-07-12T19:42:32.590Z,25.10
2018-07-12T19:45:02.791Z,25.10
2018-07-12T19:47:33.028Z,25.00
2018-07-12T19:50:05.295Z,24.90
2018-07-12T19:52:35.952Z,24.90
2018-07-12T19:55:05.897Z,24.80
2018-07-12T19:57:37.159Z,24.70
2018-07-12T20:00:09.559Z,24.70
2018-07-12T20:05:12.914Z,24.50
2018-07-12T20:07:42.909Z,24.40
2018-07-12T20:10:14.213Z,24.40
2018-07-12T20:12:44.157Z,24.30
2018-07-12T20:15:15.531Z,24.20
2018-07-12T20:17:45.757Z,24.20
2018-07-12T20:20:15.704Z,24.10
2018-07-12T20:22:45.691Z,24.10
2018-07-12T20:25:16.147Z,24.00
2018-07-12T20:27:48.571Z,23.90
2018-07-12T20:30:19.269Z,23.80
2018-07-12T20:32:49.220Z,23.80
2018-07-12T20:35:19.005Z,23.70
2018-07-12T20:37:49.440Z,23.70
2018-07-12T20:40:25.295Z,23.60
2018-07-12T20:42:56.214Z,23.60
2018-07-12T20:45:31.670Z,23.50
2018-07-12T20:48:02.273Z,23.50
2018-07-12T20:50:31.547Z,23.40
2018-07-12T20:53:02.346Z,23.40
2018-07-12T20:55:31.754Z,23.30
2018-07-12T21:00:32.933Z,23.20
2018-07-12T21:03:03.496Z,23.20
2018-07-12T21:05:36.647Z,23.10
2018-07-12T21:08:08.766Z,23.00
2018-07-12T21:10:39.043Z,23.00
2018-07-12T21:13:09.219Z,22.90
2018-07-12T21:15:42.991Z,22.80
2018-07-12T21:18:15.298Z,22.70
2018-07-12T21:20:51.928Z,22.60
2018-07-12T21:23:22.131Z,22.50
2018-07-12T21:25:51.804Z,22.40
2018-07-12T21:28:21.115Z,22.30
2018-07-12T21:30:50.296Z,22.20
2018-07-12T21:33:19.440Z,22.20
2018-07-12T21:35:48.602Z,22.20
2018-07-12T21:38:18.891Z,22.10
2018-07-12T21:40:48.265Z,22.00
2018-07-12T21:43:18.128Z,22.00
2018-07-12T21:45:48.256Z,21.90
2018-07-12T21:48:17.452Z,21.90
2018-07-12T21:50:47.538Z,21.90
2018-07-12T21:53:16.702Z,21.90
2018-07-12T21:55:45.830Z,21.80
2018-07-12T21:58:15.298Z,21.80
2018-07-12T22:00:44.484Z,21.70
2018-07-12T22:03:13.854Z,21.70
2018-07-12T22:05:43.088Z,21.60
2018-07-12T22:08:13.970Z,21.60
2018-07-12T22:10:44.668Z,21.60
2018-07-12T22:13:14.881Z,21.60
2018-07-12T22:18:16.053Z,21.60
2018-07-12T22:20:45.241Z,21.60
2018-07-12T22:23:14.471Z,21.60
2018-07-12T22:25:43.652Z,21.60
2018-07-12T22:28:13.665Z,21.60
2018-07-12T22:30:43.067Z,21.60
2018-07-12T22:33:12.409Z,21.60
2018-07-12T22:35:41.778Z,21.60
2018-07-12T22:40:39.854Z,21.50
2018-07-12T22:43:09.842Z,21.40
2018-07-12T22:48:09.543Z,21.30
2018-07-12T22:50:38.985Z,21.20
2018-07-12T22:53:09.122Z,21.10
2018-07-12T22:55:38.439Z,21.00
2018-07-12T22:58:08.460Z,21.00
2018-07-12T23:00:37.909Z,20.90
2018-07-12T23:03:07.106Z,20.90
2018-07-12T23:05:36.249Z,20.90
2018-07-12T23:08:06.115Z,20.80
2018-07-12T23:10:35.423Z,20.80
2018-07-12T23:13:04.683Z,20.80
2018-07-12T23:15:34.545Z,20.80
2018-07-12T23:18:04.800Z,20.70
2018-07-12T23:20:34.076Z,20.70
2018-07-12T23:23:03.300Z,20.70
2018-07-12T23:25:32.555Z,20.60
2018-07-12T23:28:01.808Z,20.60
2018-07-12T23:30:31.035Z,20.60
2018-07-12T23:33:00.281Z,20.50
2018-07-12T23:35:29.608Z,20.50
2018-07-12T23:37:58.916Z,20.50
2018-07-12T23:40:28.100Z,20.40
2018-07-12T23:42:57.732Z,20.30
2018-07-12T23:45:27.330Z,20.20
2018-07-12T23:47:56.740Z,20.00
2018-07-12T23:50:25.914Z,20.00
2018-07-12T23:52:55.155Z,19.90
2018-07-12T23:55:24.331Z,19.80
2018-07-12T23:57:53.462Z,19.70
